岡山グライダークラブ活動状況掲示板

岡山グライダークラブ
岡山市浦安南町639-1 岡南飛行場
 使用機:シャイベ式 SF25C型 ファルケ   JA2330
      ヴァレンティン式17E型 タイフーン  JA2342
 練習日:毎日曜日  クラブルーム:電話 086-265-1810
この掲示板は岡山グライダークラブの活動状況をお知らせする掲示板です。
!!!この掲示板は投稿規制をしています。!!!
クラブ関連各種情報は 岡山グライダークラブクラブルーム      を       .
  ブリーフイング情報は  岡山グライダークラブブリーフィングルーム  をご覧下さい。 .
※写真はクリックすると拡大して見ることが出来ます。
岡南飛行場へのアクセス等は 岡南飛行場管理事務所 をご覧ください。
クラブの ホームページ ができました。

!!!緊急事態宣言、まん延防止等重点措置の解除に伴い、見学者等の受入を再開します。なお、来所の際には、こちらを順守願います。

 
9月12日
by OGC at 2021/9/12(日) 10:49:05 No.20210912104529  削除コメント
1219 x 858 x 56,260バイト <この画像は大きいので別画面で表示します>
No.1

09月12日
本日のリモート参加者
  会員      11名
  その他      0名


@本日の様子






METAR
RJBK 120000Z 03003KT 310V070 07KM FEW010CU SCT060SC BKN100AC 25/23 Q1012 A2989
RJOB 120000Z VRB01KT 6000 FEW002 SCT008 BKN/// 23/21 Q1013
RJOT 120000Z 09004KT 7000 VCSH FEW005 SCT060 BKN100 24/23 Q1012
RJOA 120000Z 09003KT 050V130 7000 FEW006 SCT080 BKN/// 23/21 Q1013

TAF
RJOB 112306Z 1200/1306 14005KT 9999 FEW015 SCT025
       BECMG 1300/1303 21005KT
RJOT 112308Z 1200/1306 06005KT 9999 FEW015 SCT025
RJOA 112305Z 1200/1306 14004KT 9999 FEW012 SCT025
       BECMG 1212/1215 34005KT
       BECMG 1221/1300 12006KT


岡山県の緊急事態宣言(9月12日まで)を受け、本日、第17回リモートブリーフィングを開催しました。
9月13日から岡山県まん延防止等重点措置に切り替わりますので、次週、9月19日(日)から感染防止対策を十分に行いながら、徐々に訓練を再開していくことになりました。


集合 10:00 解散    10:25

本日のフライトはありません。


    << 戻る || ホームページ || 最新の掲示板へ